Time;durP1;ratioP1;P1;durP2;ratioP2;P2;SDS_P1;SDS_P2;PMS_P1;PMS_P2;Temp;Humidity;BMP_temperature;BMP_pressure;BME280_temperature;BME280_humidity;BME280_pressure;Samples;Min_cycle;Max_cycle;Signal;HPM_P1;HPM_P2
2022/03/26 00:01:04;;;;;;;;;;;9.20;74.40;;;;;;5063164;28;20290;-71
2022/03/26 00:03:31;;;;;;;;;;;9.10;74.60;;;;;;5058786;28;21481;-72
2022/03/26 00:05:57;;;;;;;;;;;9.00;74.90;;;;;;5060181;28;19929;-73
2022/03/26 00:08:24;;;;;;;;;;;9.10;75.20;;;;;;5062976;28;20288;-71
2022/03/26 00:10:51;;;;;;;;;;;8.90;75.50;;;;;;5058273;28;20533;-72
2022/03/26 00:13:20;;;;;;;;;;;8.90;75.90;;;;;;5060447;28;20311;-71
2022/03/26 00:15:46;;;;;;;;;;;8.90;75.60;;;;;;5060795;28;20264;-72
2022/03/26 00:18:15;;;;;;;;;;;9.00;75.30;;;;;;5058688;28;19929;-72
2022/03/26 00:20:42;;;;;;;;;;;9.00;75.30;;;;;;5064729;28;19929;-72
2022/03/26 00:23:08;;;;;;;;;;;8.90;75.50;;;;;;5064584;28;20035;-72
2022/03/26 00:25:35;;;;;;;;;;;8.90;75.60;;;;;;5062901;28;19931;-72
2022/03/26 00:28:02;;;;;;;;;;;8.90;75.70;;;;;;5059305;28;19933;-72
2022/03/26 00:30:31;;;;;;;;;;;8.90;75.50;;;;;;5062861;28;19932;-72
2022/03/26 00:32:58;;;;;;;;;;;8.90;75.90;;;;;;5061842;28;19931;-72
2022/03/26 00:35:24;;;;;;;;;;;8.90;75.90;;;;;;5064215;28;20346;-73
2022/03/26 00:37:52;;;;;;;;;;;8.80;75.70;;;;;;5061107;28;20410;-72
2022/03/26 00:40:19;;;;;;;;;;;8.80;76.10;;;;;;5060042;28;19990;-72
2022/03/26 00:42:46;;;;;;;;;;;8.80;76.10;;;;;;5060815;28;19936;-72
2022/03/26 00:45:13;;;;;;;;;;;8.90;75.90;;;;;;5058058;28;20039;-74
2022/03/26 00:47:41;;;;;;;;;;;8.80;76.10;;;;;;5062198;28;20286;-75
2022/03/26 00:50:08;;;;;;;;;;;8.70;76.30;;;;;;5059913;28;19925;-71
2022/03/26 00:52:35;;;;;;;;;;;8.80;75.80;;;;;;5063077;28;20458;-72
2022/03/26 00:55:02;;;;;;;;;;;8.80;75.90;;;;;;5059978;28;19924;-71
2022/03/26 00:57:29;;;;;;;;;;;8.80;76.10;;;;;;5061109;28;19925;-71
2022/03/26 00:59:58;;;;;;;;;;;8.70;76.60;;;;;;5068178;28;19932;-72
2022/03/26 01:02:24;;;;;;;;;;;8.60;76.80;;;;;;5063169;28;19924;-72
2022/03/26 01:04:52;;;;;;;;;;;8.60;77.00;;;;;;5063952;28;19935;-72
2022/03/26 01:07:19;;;;;;;;;;;8.60;77.30;;;;;;5066721;28;19928;-72
2022/03/26 01:09:46;;;;;;;;;;;8.50;77.60;;;;;;5069665;28;20375;-72
2022/03/26 01:12:13;;;;;;;;;;;8.40;78.00;;;;;;5086030;28;20653;-72
2022/03/26 01:14:39;;;;;;;;;;;8.60;78.00;;;;;;5085485;28;19967;-72
2022/03/26 01:17:07;;;;;;;;;;;8.40;78.10;;;;;;5085387;28;19931;-71
2022/03/26 01:19:34;;;;;;;;;;;8.60;78.50;;;;;;5083583;28;19942;-71
2022/03/26 01:22:02;;;;;;;;;;;8.30;78.60;;;;;;5084079;28;19971;-71
2022/03/26 01:24:28;;;;;;;;;;;8.30;78.70;;;;;;5085165;28;19924;-71
2022/03/26 01:26:55;;;;;;;;;;;8.30;79.10;;;;;;5087478;28;19924;-72
2022/03/26 01:29:22;;;;;;;;;;;8.30;79.20;;;;;;5084004;28;19932;-72
2022/03/26 01:31:48;;;;;;;;;;;8.30;79.30;;;;;;5083904;28;19971;-72
2022/03/26 01:34:15;;;;;;;;;;;8.20;79.50;;;;;;5084625;28;20378;-74
2022/03/26 01:36:42;;;;;;;;;;;8.10;79.90;;;;;;5085120;28;19939;-73
2022/03/26 01:39:10;;;;;;;;;;;8.00;80.40;;;;;;5084236;28;19932;-72
2022/03/26 01:41:37;;;;;;;;;;;7.90;80.80;;;;;;5084811;28;20358;-72
2022/03/26 01:44:04;;;;;;;;;;;7.90;80.90;;;;;;5081613;28;20405;-71
2022/03/26 01:46:44;;;;;;;;;;;7.90;81.50;;;;;;5084913;28;19928;-70
2022/03/26 01:49:11;;;;;;;;;;;8.00;81.50;;;;;;5085533;28;19924;-73
2022/03/26 01:51:37;;;;;;;;;;;7.90;81.40;;;;;;5084059;28;19932;-71
2022/03/26 01:54:04;;;;;;;;;;;8.10;81.40;;;;;;5090822;28;19924;-72
2022/03/26 01:56:32;;;;;;;;;;;8.00;81.60;;;;;;5085900;28;19925;-71
2022/03/26 01:59:00;;;;;;;;;;;7.90;81.60;;;;;;5083476;28;19930;-72
2022/03/26 02:01:26;;;;;;;;;;;7.90;81.90;;;;;;5084578;28;19924;-72
2022/03/26 02:03:53;;;;;;;;;;;7.90;82.20;;;;;;5087709;28;19934;-72
2022/03/26 02:06:22;;;;;;;;;;;7.90;82.20;;;;;;5084471;28;21427;-72
2022/03/26 02:08:49;;;;;;;;;;;7.90;82.70;;;;;;5085372;28;20379;-72
2022/03/26 02:11:16;;;;;;;;;;;7.80;82.90;;;;;;5067279;28;19924;-70
2022/03/26 02:13:55;;;;;;;;;;;7.70;83.30;;;;;;5063633;28;19932;-69
2022/03/26 02:16:22;;;;;;;;;;;7.60;83.30;;;;;;5063430;28;19958;-71
2022/03/26 02:18:48;;;;;;;;;;;7.60;83.70;;;;;;5064004;28;19931;-71
2022/03/26 02:21:17;;;;;;;;;;;7.60;84.00;;;;;;5063500;28;19940;-71
2022/03/26 02:23:43;;;;;;;;;;;7.60;84.30;;;;;;5060366;28;19933;-71
2022/03/26 02:26:10;;;;;;;;;;;7.50;84.60;;;;;;5064763;28;19933;-71
2022/03/26 02:28:37;;;;;;;;;;;7.40;85.00;;;;;;5061400;28;20035;-71
2022/03/26 02:31:04;;;;;;;;;;;7.30;85.70;;;;;;5064056;28;19928;-71
2022/03/26 02:33:31;;;;;;;;;;;7.20;86.40;;;;;;5064146;28;19952;-71
2022/03/26 02:35:58;;;;;;;;;;;7.20;87.10;;;;;;5064597;28;19933;-71
2022/03/26 02:38:26;;;;;;;;;;;7.10;87.10;;;;;;5061231;28;19925;-70
2022/03/26 02:40:52;;;;;;;;;;;7.00;88.30;;;;;;5065443;28;19952;-70
2022/03/26 02:43:19;;;;;;;;;;;7.00;89.00;;;;;;5063065;28;19932;-70
2022/03/26 02:45:46;;;;;;;;;;;6.90;89.90;;;;;;5061456;28;19929;-71
2022/03/26 02:48:14;;;;;;;;;;;6.80;90.30;;;;;;5062777;28;19960;-71
2022/03/26 02:50:41;;;;;;;;;;;6.80;90.60;;;;;;5062551;28;19933;-70
2022/03/26 02:53:07;;;;;;;;;;;6.80;91.10;;;;;;5064972;28;20024;-72
2022/03/26 02:55:35;;;;;;;;;;;6.80;91.10;;;;;;5064634;28;19947;-71
2022/03/26 02:58:02;;;;;;;;;;;6.70;91.10;;;;;;5062910;28;19931;-73
2022/03/26 03:00:29;;;;;;;;;;;6.60;91.50;;;;;;5063622;28;19924;-71
2022/03/26 03:02:56;;;;;;;;;;;6.50;91.80;;;;;;5061767;28;19936;-71
2022/03/26 03:05:22;;;;;;;;;;;6.40;92.30;;;;;;5063319;28;19952;-71
2022/03/26 03:07:50;;;;;;;;;;;6.30;92.80;;;;;;5065339;28;20296;-71
2022/03/26 03:10:17;;;;;;;;;;;6.30;93.50;;;;;;5069006;28;19924;-71
2022/03/26 03:12:46;;;;;;;;;;;6.20;94.00;;;;;;5084330;28;20420;-71
2022/03/26 03:15:16;;;;;;;;;;;6.10;94.60;;;;;;5062836;28;22285;-71
2022/03/26 03:17:43;;;;;;;;;;;6.10;95.40;;;;;;5081506;28;19928;-70
2022/03/26 03:20:11;;;;;;;;;;;6.00;96.00;;;;;;5079556;28;19947;-70
2022/03/26 03:22:38;;;;;;;;;;;5.90;96.20;;;;;;5083715;28;19930;-71
2022/03/26 03:25:05;;;;;;;;;;;6.00;96.80;;;;;;5082028;28;19931;-70
2022/03/26 03:27:33;;;;;;;;;;;6.00;97.60;;;;;;5083932;28;19942;-70
2022/03/26 03:30:01;;;;;;;;;;;6.00;97.90;;;;;;5082884;28;20383;-71
2022/03/26 03:32:27;;;;;;;;;;;6.00;98.10;;;;;;5083845;28;20382;-71
2022/03/26 03:34:54;;;;;;;;;;;5.90;98.30;;;;;;5085498;28;20014;-71
2022/03/26 03:37:21;;;;;;;;;;;5.90;98.50;;;;;;5079430;28;19924;-71
2022/03/26 03:39:48;;;;;;;;;;;5.90;98.70;;;;;;5082172;28;19947;-70
2022/03/26 03:42:14;;;;;;;;;;;6.00;99.00;;;;;;5082756;28;20525;-71
2022/03/26 03:44:41;;;;;;;;;;;5.90;99.10;;;;;;5081503;28;20373;-71
2022/03/26 03:47:09;;;;;;;;;;;5.90;99.40;;;;;;5082841;28;20344;-71
2022/03/26 03:49:36;;;;;;;;;;;5.90;99.80;;;;;;5079163;28;19924;-70
2022/03/26 03:52:04;;;;;;;;;;;6.00;99.90;;;;;;5087024;28;19928;-71
2022/03/26 03:54:30;;;;;;;;;;;5.90;99.90;;;;;;5082637;28;20020;-71
2022/03/26 03:56:57;;;;;;;;;;;5.90;99.90;;;;;;5083462;28;20298;-71
2022/03/26 03:59:24;;;;;;;;;;;5.80;99.90;;;;;;5081922;28;20291;-71
2022/03/26 04:01:50;;;;;;;;;;;5.80;99.90;;;;;;5085561;28;20585;-72
2022/03/26 04:04:18;;;;;;;;;;;5.90;99.90;;;;;;5083289;28;19924;-71
2022/03/26 04:06:45;;;;;;;;;;;6.00;99.90;;;;;;5078805;28;19941;-71
2022/03/26 04:09:12;;;;;;;;;;;6.00;99.90;;;;;;5081629;28;19932;-71
2022/03/26 04:11:38;;;;;;;;;;;6.00;99.90;;;;;;5062610;28;19939;-73
2022/03/26 04:14:06;;;;;;;;;;;5.80;99.90;;;;;;5059259;28;19932;-71
2022/03/26 04:16:33;;;;;;;;;;;5.70;99.90;;;;;;5065036;28;19995;-72
2022/03/26 04:18:59;;;;;;;;;;;5.70;99.90;;;;;;5060538;28;20378;-70
2022/03/26 04:21:27;;;;;;;;;;;5.60;99.90;;;;;;5060296;28;19959;-71
2022/03/26 04:23:54;;;;;;;;;;;5.50;99.90;;;;;;5060916;28;19932;-71
2022/03/26 04:26:21;;;;;;;;;;;5.50;99.90;;;;;;5061317;28;19924;-71
2022/03/26 04:28:48;;;;;;;;;;;5.40;99.90;;;;;;5059541;28;19932;-71
2022/03/26 04:31:14;;;;;;;;;;;5.40;99.90;;;;;;5061568;28;20017;-71
2022/03/26 04:33:41;;;;;;;;;;;5.40;99.90;;;;;;5060750;28;19932;-71
2022/03/26 04:36:07;;;;;;;;;;;5.30;99.90;;;;;;5062312;28;19929;-71
2022/03/26 04:38:36;;;;;;;;;;;5.30;99.90;;;;;;5061323;28;19924;-71
2022/03/26 04:41:03;;;;;;;;;;;5.30;99.90;;;;;;5060046;28;20310;-71
2022/03/26 04:43:29;;;;;;;;;;;5.20;99.90;;;;;;5058242;28;19928;-71
2022/03/26 04:45:56;;;;;;;;;;;5.20;99.90;;;;;;5060072;28;20385;-72
2022/03/26 04:48:23;;;;;;;;;;;5.10;99.90;;;;;;5062116;28;20518;-72
2022/03/26 04:50:49;;;;;;;;;;;5.10;99.90;;;;;;5064599;28;20019;-71
2022/03/26 04:53:16;;;;;;;;;;;5.20;99.90;;;;;;5063214;28;19935;-71
2022/03/26 04:55:44;;;;;;;;;;;5.20;99.90;;;;;;5060433;28;19928;-72
2022/03/26 04:58:11;;;;;;;;;;;5.20;99.90;;;;;;5061177;28;19924;-73
2022/03/26 05:00:37;;;;;;;;;;;5.10;99.90;;;;;;5064462;28;19967;-72
2022/03/26 05:03:04;;;;;;;;;;;5.10;99.90;;;;;;5059348;28;19959;-71
2022/03/26 05:05:31;;;;;;;;;;;5.10;99.90;;;;;;5062551;28;20114;-71
2022/03/26 05:07:59;;;;;;;;;;;4.90;99.90;;;;;;5060482;28;19925;-71
2022/03/26 05:10:28;;;;;;;;;;;4.90;99.90;;;;;;5071338;28;20731;-71
2022/03/26 05:12:57;;;;;;;;;;;4.80;99.90;;;;;;5080924;28;20035;-72
2022/03/26 05:15:26;;;;;;;;;;;4.90;99.90;;;;;;5078584;28;19932;-71
2022/03/26 05:17:53;;;;;;;;;;;4.80;99.90;;;;;;5080521;28;19928;-71
2022/03/26 05:20:21;;;;;;;;;;;4.70;99.90;;;;;;5080589;28;20297;-72
2022/03/26 05:22:48;;;;;;;;;;;4.60;99.90;;;;;;5082586;28;20367;-71
2022/03/26 05:25:16;;;;;;;;;;;4.70;99.90;;;;;;5081253;28;19932;-71
2022/03/26 05:27:44;;;;;;;;;;;4.60;99.90;;;;;;5078679;28;20279;-71
2022/03/26 05:30:13;;;;;;;;;;;4.70;99.90;;;;;;5080877;28;19924;-71
2022/03/26 05:32:39;;;;;;;;;;;4.70;99.90;;;;;;5082170;28;19932;-72
2022/03/26 05:35:11;;;;;;;;;;;4.70;99.90;;;;;;5081004;28;19924;-71
2022/03/26 05:37:38;;;;;;;;;;;4.70;99.90;;;;;;5078919;28;20030;-71
2022/03/26 05:40:05;;;;;;;;;;;4.70;99.90;;;;;;5081362;28;19938;-71
2022/03/26 05:42:32;;;;;;;;;;;4.70;99.90;;;;;;5078996;28;20322;-71
2022/03/26 05:44:59;;;;;;;;;;;4.70;99.90;;;;;;5082813;28;20315;-70
2022/03/26 05:47:27;;;;;;;;;;;4.70;99.90;;;;;;5089482;28;19924;-72
2022/03/26 05:49:54;;;;;;;;;;;4.50;99.90;;;;;;5084279;28;19950;-72
2022/03/26 05:52:20;;;;;;;;;;;4.50;99.90;;;;;;5080069;28;19943;-71
2022/03/26 05:54:47;;;;;;;;;;;4.40;99.90;;;;;;5085852;28;20015;-72
2022/03/26 05:57:14;;;;;;;;;;;4.50;99.90;;;;;;5084912;28;20013;-70
2022/03/26 05:59:40;;;;;;;;;;;4.50;99.90;;;;;;5084430;28;19924;-70
2022/03/26 06:02:10;;;;;;;;;;;4.60;99.90;;;;;;5085474;28;19931;-71
2022/03/26 06:04:38;;;;;;;;;;;4.70;99.90;;;;;;5087690;28;20678;-70
2022/03/26 06:07:05;;;;;;;;;;;4.70;99.90;;;;;;5084478;28;19932;-69
2022/03/26 06:09:32;;;;;;;;;;;4.80;99.90;;;;;;5082887;28;19923;-70
2022/03/26 06:11:59;;;;;;;;;;;4.80;99.90;;;;;;5064083;28;19928;-70
2022/03/26 06:14:26;;;;;;;;;;;4.90;99.90;;;;;;5067081;28;19984;-73
2022/03/26 06:16:52;;;;;;;;;;;5.10;99.90;;;;;;5065246;28;19925;-70
2022/03/26 06:19:19;;;;;;;;;;;5.30;99.90;;;;;;5066313;28;19924;-72
2022/03/26 06:21:47;;;;;;;;;;;5.50;99.90;;;;;;5072971;28;19932;-69
2022/03/26 06:24:14;;;;;;;;;;;5.60;99.90;;;;;;5067585;28;19950;-70
2022/03/26 06:26:43;;;;;;;;;;;5.70;99.90;;;;;;5064822;28;19924;-70
2022/03/26 06:29:12;;;;;;;;;;;5.80;99.90;;;;;;5063360;28;19960;-70
2022/03/26 06:31:39;;;;;;;;;;;5.90;99.90;;;;;;5065895;28;20334;-69
2022/03/26 06:34:05;;;;;;;;;;;6.00;99.90;;;;;;5068014;28;20020;-69
2022/03/26 06:36:35;;;;;;;;;;;6.10;99.90;;;;;;5071072;28;19925;-70
2022/03/26 06:39:05;;;;;;;;;;;6.30;99.90;;;;;;5068886;28;19924;-70
2022/03/26 06:41:31;;;;;;;;;;;6.50;99.90;;;;;;5070501;28;19966;-70
2022/03/26 06:43:58;;;;;;;;;;;6.70;99.90;;;;;;5067217;28;20350;-71
2022/03/26 06:46:25;;;;;;;;;;;6.80;99.90;;;;;;5069535;28;19931;-70
2022/03/26 06:48:51;;;;;;;;;;;6.80;99.90;;;;;;5068293;28;20019;-70
2022/03/26 06:51:19;;;;;;;;;;;6.70;99.90;;;;;;5068182;28;19925;-69
2022/03/26 06:53:45;;;;;;;;;;;6.70;99.90;;;;;;5069636;28;19924;-69
2022/03/26 06:56:13;;;;;;;;;;;6.80;99.90;;;;;;5070905;28;20014;-69
2022/03/26 06:58:40;;;;;;;;;;;6.80;99.90;;;;;;5068291;28;19925;-70
2022/03/26 07:01:07;;;;;;;;;;;6.90;99.90;;;;;;5071387;28;19924;-70
2022/03/26 07:03:33;;;;;;;;;;;7.00;99.90;;;;;;5068924;28;19931;-70
2022/03/26 07:06:00;;;;;;;;;;;7.00;99.90;;;;;;5071235;28;19925;-69
2022/03/26 07:08:27;;;;;;;;;;;7.10;99.90;;;;;;5071157;28;19928;-70
2022/03/26 07:10:53;;;;;;;;;;;7.30;99.90;;;;;;5085541;28;20283;-70
2022/03/26 07:13:21;;;;;;;;;;;7.40;99.90;;;;;;5084085;28;20011;-71
2022/03/26 07:15:48;;;;;;;;;;;7.30;99.90;;;;;;5091006;28;19924;-70
2022/03/26 07:18:15;;;;;;;;;;;7.40;99.90;;;;;;5086450;28;19938;-69
2022/03/26 07:20:42;;;;;;;;;;;7.80;99.90;;;;;;5086987;28;19967;-72
2022/03/26 07:23:09;;;;;;;;;;;7.50;99.90;;;;;;5085435;28;19931;-70
2022/03/26 07:25:35;;;;;;;;;;;7.50;99.90;;;;;;5087650;28;22134;-70
2022/03/26 07:28:02;;;;;;;;;;;7.50;99.90;;;;;;5087565;28;20371;-70
2022/03/26 07:30:31;;;;;;;;;;;7.70;99.90;;;;;;5086795;28;20840;-70
2022/03/26 07:32:57;;;;;;;;;;;7.80;99.90;;;;;;5087864;28;20003;-70
2022/03/26 07:35:25;;;;;;;;;;;8.10;99.90;;;;;;5087893;28;19938;-70
2022/03/26 07:37:52;;;;;;;;;;;8.90;99.90;;;;;;5089143;28;20351;-70
2022/03/26 07:40:19;;;;;;;;;;;9.70;99.90;;;;;;5084642;28;19925;-69
2022/03/26 07:42:45;;;;;;;;;;;10.10;99.70;;;;;;5080541;28;19931;-70
2022/03/26 07:45:12;;;;;;;;;;;11.10;97.90;;;;;;5082802;28;19924;-70
2022/03/26 07:47:40;;;;;;;;;;;11.90;94.40;;;;;;5085516;28;19924;-70
2022/03/26 07:50:07;;;;;;;;;;;11.80;93.50;;;;;;5085298;28;19924;-70
2022/03/26 07:52:34;;;;;;;;;;;12.20;91.60;;;;;;5085931;28;20016;-71
2022/03/26 07:55:01;;;;;;;;;;;12.00;91.70;;;;;;5081929;28;21702;-71
2022/03/26 07:57:28;;;;;;;;;;;12.10;91.00;;;;;;5084252;28;19930;-71
2022/03/26 07:59:55;;;;;;;;;;;12.10;91.10;;;;;;5084018;28;20022;-71
2022/03/26 08:02:21;;;;;;;;;;;12.30;90.40;;;;;;5083677;28;19931;-71
2022/03/26 08:04:49;;;;;;;;;;;13.30;86.10;;;;;;5080166;28;20391;-71
2022/03/26 08:07:16;;;;;;;;;;;12.40;87.20;;;;;;5086090;28;19967;-71
2022/03/26 08:09:43;;;;;;;;;;;12.80;90.50;;;;;;5079061;28;20065;-70
2022/03/26 08:12:10;;;;;;;;;;;13.20;85.10;;;;;;5064135;28;19924;-71
2022/03/26 08:14:37;;;;;;;;;;;13.40;83.60;;;;;;5062043;28;20351;-71
2022/03/26 08:17:04;;;;;;;;;;;12.90;82.80;;;;;;5066235;28;19960;-71
2022/03/26 08:19:34;;;;;;;;;;;12.70;83.00;;;;;;5059130;28;19928;-70
2022/03/26 08:22:02;;;;;;;;;;;12.50;85.00;;;;;;5067165;28;20306;-70
2022/03/26 08:24:29;;;;;;;;;;;12.70;84.70;;;;;;5061838;28;20387;-70
2022/03/26 08:26:56;;;;;;;;;;;13.30;82.60;;;;;;5065681;28;19924;-70
2022/03/26 08:29:22;;;;;;;;;;;13.20;82.00;;;;;;5064390;28;19932;-69
2022/03/26 08:31:49;;;;;;;;;;;12.90;82.10;;;;;;5066200;28;19924;-69
2022/03/26 08:34:18;;;;;;;;;;;13.20;80.80;;;;;;5065926;28;19978;-69
2022/03/26 08:36:45;;;;;;;;;;;13.00;80.90;;;;;;5059567;28;19936;-70
2022/03/26 08:39:13;;;;;;;;;;;13.20;82.00;;;;;;5061767;28;19924;-70
2022/03/26 08:41:39;;;;;;;;;;;13.20;81.20;;;;;;5070911;28;19924;-70
2022/03/26 08:44:06;;;;;;;;;;;13.40;78.70;;;;;;5064568;28;20318;-70
2022/03/26 08:46:34;;;;;;;;;;;13.80;77.40;;;;;;5064319;28;19928;-70
2022/03/26 08:49:00;;;;;;;;;;;13.60;77.60;;;;;;5056270;28;20015;-70
2022/03/26 08:51:27;;;;;;;;;;;14.00;77.90;;;;;;5061577;28;19936;-70
2022/03/26 08:53:54;;;;;;;;;;;14.30;75.00;;;;;;5062582;28;19924;-70
2022/03/26 08:56:22;;;;;;;;;;;14.00;73.00;;;;;;5065500;28;19929;-70
2022/03/26 08:58:49;;;;;;;;;;;14.50;74.10;;;;;;5062686;28;20481;-70
2022/03/26 09:01:16;;;;;;;;;;;14.90;71.10;;;;;;5060171;28;19924;-69
2022/03/26 09:03:43;;;;;;;;;;;14.30;72.10;;;;;;5062218;28;19928;-71
2022/03/26 09:06:10;;;;;;;;;;;14.50;71.20;;;;;;5062946;28;19971;-69
2022/03/26 09:08:37;;;;;;;;;;;15.20;68.60;;;;;;5066203;28;20348;-69
2022/03/26 09:11:05;;;;;;;;;;;14.90;68.70;;;;;;5065438;28;19991;-70
2022/03/26 09:13:34;;;;;;;;;;;15.40;67.20;;;;;;5061015;28;19990;-70
2022/03/26 09:16:01;;;;;;;;;;;14.70;68.00;;;;;;5064658;28;19954;-69
2022/03/26 09:18:28;;;;;;;;;;;14.50;67.80;;;;;;5063881;28;19947;-70
2022/03/26 09:20:55;;;;;;;;;;;14.30;69.70;;;;;;5068161;28;20023;-69
2022/03/26 09:23:22;;;;;;;;;;;14.60;68.50;;;;;;5069227;28;19925;-69
2022/03/26 09:25:48;;;;;;;;;;;14.90;67.30;;;;;;5065457;28;19975;-69
2022/03/26 09:28:15;;;;;;;;;;;15.00;64.80;;;;;;5069092;28;19938;-69
2022/03/26 09:30:43;;;;;;;;;;;15.70;63.40;;;;;;5067373;28;19928;-69
2022/03/26 09:33:10;;;;;;;;;;;15.40;63.00;;;;;;5066417;28;19931;-69
2022/03/26 09:35:36;;;;;;;;;;;15.10;63.30;;;;;;5066583;28;19963;-70
2022/03/26 09:38:03;;;;;;;;;;;15.10;63.90;;;;;;5064336;28;19932;-69
2022/03/26 09:40:30;;;;;;;;;;;15.30;64.40;;;;;;5065931;28;19924;-69
2022/03/26 09:42:57;;;;;;;;;;;15.10;62.80;;;;;;5065407;28;19960;-70
2022/03/26 09:45:23;;;;;;;;;;;15.20;63.60;;;;;;5065839;28;19932;-69
2022/03/26 09:47:52;;;;;;;;;;;15.80;62.20;;;;;;5064236;28;19924;-69
2022/03/26 09:50:19;;;;;;;;;;;16.60;59.90;;;;;;5061275;28;19924;-68
2022/03/26 09:52:46;;;;;;;;;;;16.00;59.40;;;;;;5065379;28;19929;-68
2022/03/26 09:55:13;;;;;;;;;;;15.20;59.30;;;;;;5065472;28;19967;-69
2022/03/26 09:57:41;;;;;;;;;;;15.20;60.10;;;;;;5064908;28;19924;-68
2022/03/26 10:00:09;;;;;;;;;;;16.10;59.20;;;;;;5064280;28;19931;-69
2022/03/26 10:02:36;;;;;;;;;;;15.90;57.40;;;;;;5057919;28;19932;-69
2022/03/26 10:05:05;;;;;;;;;;;16.20;58.50;;;;;;5064294;28;20015;-67
2022/03/26 10:07:32;;;;;;;;;;;15.90;56.70;;;;;;5067047;28;20410;-69
2022/03/26 10:09:59;;;;;;;;;;;15.70;59.10;;;;;;5065600;28;19964;-70
2022/03/26 10:12:27;;;;;;;;;;;16.00;57.60;;;;;;5059729;28;19928;-68
2022/03/26 10:14:55;;;;;;;;;;;16.70;55.80;;;;;;5066501;28;20576;-68
2022/03/26 10:17:22;;;;;;;;;;;16.80;55.30;;;;;;5065188;28;19997;-70
2022/03/26 10:19:50;;;;;;;;;;;16.30;55.80;;;;;;5066620;28;20094;-70
2022/03/26 10:22:29;;;;;;;;;;;15.50;56.40;;;;;;5062143;28;19946;-70
2022/03/26 10:24:56;;;;;;;;;;;15.30;57.40;;;;;;5064684;28;19929;-70
2022/03/26 10:27:22;;;;;;;;;;;15.40;58.10;;;;;;5068013;28;19924;-70
2022/03/26 10:29:50;;;;;;;;;;;15.40;58.00;;;;;;5061711;28;19975;-71
2022/03/26 10:32:38;;;;;;;;;;;15.60;57.50;;;;;;5064009;28;19925;-71
2022/03/26 10:35:06;;;;;;;;;;;15.50;56.90;;;;;;5060120;28;20438;-69
2022/03/26 10:37:41;;;;;;;;;;;15.30;56.60;;;;;;5066709;28;20333;-70
2022/03/26 10:40:32;;;;;;;;;;;15.30;57.20;;;;;;5063145;28;19932;-69
2022/03/26 10:43:00;;;;;;;;;;;15.70;57.50;;;;;;5050558;28;19935;-69
2022/03/26 10:45:28;;;;;;;;;;;15.50;56.50;;;;;;5065957;28;19951;-70
2022/03/26 10:47:55;;;;;;;;;;;15.80;57.80;;;;;;5065685;28;19925;-70
2022/03/26 10:50:22;;;;;;;;;;;15.70;55.00;;;;;;5065210;28;20438;-69
2022/03/26 10:52:53;;;;;;;;;;;15.60;55.50;;;;;;5061289;28;19962;-69
2022/03/26 10:55:21;;;;;;;;;;;15.70;56.40;;;;;;5061945;28;20016;-69
2022/03/26 10:57:49;;;;;;;;;;;15.80;56.60;;;;;;5062507;28;19924;-69
2022/03/26 11:00:16;;;;;;;;;;;15.80;55.00;;;;;;5057875;28;19972;-70
2022/03/26 11:02:44;;;;;;;;;;;16.80;55.40;;;;;;5064183;28;19925;-71
2022/03/26 11:05:11;;;;;;;;;;;15.80;56.60;;;;;;5064445;28;19938;-70
2022/03/26 11:07:39;;;;;;;;;;;16.00;54.40;;;;;;5065120;28;19947;-71
2022/03/26 11:10:09;;;;;;;;;;;16.30;54.60;;;;;;5094782;22;19979;-69
2022/03/26 11:12:36;;;;;;;;;;;16.40;55.50;;;;;;5102648;27;20347;-68
2022/03/26 11:15:04;;;;;;;;;;;16.20;52.40;;;;;;5102957;27;20318;-69
2022/03/26 11:17:38;;;;;;;;;;;16.30;52.40;;;;;;5091262;27;19932;-69
2022/03/26 11:20:14;;;;;;;;;;;16.10;53.10;;;;;;5078580;28;19935;-69
2022/03/26 11:22:53;;;;;;;;;;;15.80;53.80;;;;;;5074642;28;19925;-68
2022/03/26 11:25:30;;;;;;;;;;;15.90;53.50;;;;;;5075865;28;20886;-68
2022/03/26 11:28:15;;;;;;;;;;;16.10;51.40;;;;;;5076903;28;20424;-67
2022/03/26 11:30:45;;;;;;;;;;;16.50;51.30;;;;;;5078159;28;19986;-68
2022/03/26 11:33:13;;;;;;;;;;;16.70;51.40;;;;;;5079223;28;20379;-70
2022/03/26 11:35:54;;;;;;;;;;;16.50;50.00;;;;;;5083016;28;19971;-69
2022/03/26 11:38:23;;;;;;;;;;;16.40;50.50;;;;;;5069238;28;19985;-70
2022/03/26 11:40:53;;;;;;;;;;;16.20;50.30;;;;;;5074635;28;20011;-69
2022/03/26 11:43:39;;;;;;;;;;;16.10;49.70;;;;;;5075197;28;19928;-69
2022/03/26 11:51:37;;;;;;;;;;;16.70;49.60;;;;;;5077251;28;20359;-70
2022/03/26 11:54:05;;;;;;;;;;;16.40;49.00;;;;;;5082106;28;19935;-69
2022/03/26 11:56:32;;;;;;;;;;;16.80;49.30;;;;;;5080276;28;20004;-70
2022/03/26 11:59:06;;;;;;;;;;;16.80;47.60;;;;;;5079852;28;19988;-71
2022/03/26 12:01:38;;;;;;;;;;;16.80;48.30;;;;;;5074050;28;19928;-69
2022/03/26 12:04:11;;;;;;;;;;;16.90;47.50;;;;;;5077683;28;20307;-70
2022/03/26 12:06:41;;;;;;;;;;;17.00;46.30;;;;;;5072908;28;19925;-69
2022/03/26 12:09:09;;;;;;;;;;;17.30;46.70;;;;;;5077414;28;20366;-70
2022/03/26 12:11:36;;;;;;;;;;;17.50;46.80;;;;;;5075316;28;19925;-69
2022/03/26 12:14:03;;;;;;;;;;;17.10;46.40;;;;;;5071802;28;19980;-69
2022/03/26 12:16:49;;;;;;;;;;;17.10;47.20;;;;;;5072173;28;20371;-69
2022/03/26 12:19:30;;;;;;;;;;;17.30;47.70;;;;;;5072451;28;19935;-69
2022/03/26 12:21:58;;;;;;;;;;;17.00;46.50;;;;;;5086980;28;19932;-70
2022/03/26 12:24:29;;;;;;;;;;;17.00;46.60;;;;;;5082454;28;19930;-70
2022/03/26 12:26:55;;;;;;;;;;;17.30;47.20;;;;;;5075186;28;19931;-70
2022/03/26 12:29:22;;;;;;;;;;;17.30;46.70;;;;;;5076110;28;19924;-69
2022/03/26 12:31:50;;;;;;;;;;;17.20;44.90;;;;;;5081459;28;20015;-68
2022/03/26 12:34:17;;;;;;;;;;;17.20;47.10;;;;;;5079194;28;19938;-70
2022/03/26 12:36:44;;;;;;;;;;;17.20;47.50;;;;;;5084282;28;19928;-70
2022/03/26 12:39:12;;;;;;;;;;;17.20;45.70;;;;;;5079701;28;19928;-70
2022/03/26 12:41:38;;;;;;;;;;;17.40;44.80;;;;;;5082266;28;19928;-70
2022/03/26 12:44:06;;;;;;;;;;;17.40;42.00;;;;;;5073552;28;19932;-70
2022/03/26 12:46:34;;;;;;;;;;;17.30;42.50;;;;;;5082351;28;19947;-70
2022/03/26 12:49:00;;;;;;;;;;;17.60;42.70;;;;;;5075360;28;19924;-70
2022/03/26 12:51:28;;;;;;;;;;;17.40;42.10;;;;;;5075829;28;19978;-70
2022/03/26 12:53:54;;;;;;;;;;;17.40;43.20;;;;;;5082040;28;19924;-70
2022/03/26 12:56:22;;;;;;;;;;;17.50;43.70;;;;;;5075273;28;19970;-70
2022/03/26 12:58:57;;;;;;;;;;;17.60;44.30;;;;;;5083771;28;19931;-69
2022/03/26 13:01:24;;;;;;;;;;;17.70;41.20;;;;;;5082147;28;20296;-69
2022/03/26 13:03:51;;;;;;;;;;;17.50;41.40;;;;;;5088545;28;20362;-69
2022/03/26 13:06:18;;;;;;;;;;;17.80;41.20;;;;;;5090979;28;19924;-68
2022/03/26 13:08:49;;;;;;;;;;;17.60;40.90;;;;;;5083120;28;20373;-67
2022/03/26 13:11:16;;;;;;;;;;;17.60;40.30;;;;;;5080891;28;19950;-70
2022/03/26 13:13:45;;;;;;;;;;;17.60;41.10;;;;;;5083908;28;20307;-70
2022/03/26 13:16:14;;;;;;;;;;;17.80;41.50;;;;;;5076297;28;20363;-69
2022/03/26 13:18:42;;;;;;;;;;;17.50;41.50;;;;;;5072885;28;19982;-70
2022/03/26 13:21:08;;;;;;;;;;;17.50;41.10;;;;;;5086818;28;20371;-68
2022/03/26 13:23:35;;;;;;;;;;;17.90;40.90;;;;;;5083588;28;20035;-67
2022/03/26 13:26:04;;;;;;;;;;;17.70;40.70;;;;;;5079735;28;19940;-69
2022/03/26 13:28:33;;;;;;;;;;;18.00;41.40;;;;;;5085169;28;19931;-69
2022/03/26 13:31:16;;;;;;;;;;;18.00;43.30;;;;;;5074831;28;20387;-68
2022/03/26 13:33:44;;;;;;;;;;;17.80;42.80;;;;;;5084678;28;19931;-67
2022/03/26 13:36:10;;;;;;;;;;;17.90;43.50;;;;;;5085099;28;19947;-68
2022/03/26 13:38:39;;;;;;;;;;;18.20;41.10;;;;;;5085047;28;19924;-68
2022/03/26 13:41:13;;;;;;;;;;;17.80;41.00;;;;;;5078985;28;19930;-68
2022/03/26 13:43:40;;;;;;;;;;;18.00;41.70;;;;;;5082499;28;19924;-67
2022/03/26 13:46:08;;;;;;;;;;;17.90;41.50;;;;;;5076576;28;19930;-68
2022/03/26 13:48:45;;;;;;;;;;;18.10;41.60;;;;;;5085311;28;20298;-69
2022/03/26 13:51:12;;;;;;;;;;;18.00;41.10;;;;;;5087390;28;20294;-69
2022/03/26 13:53:39;;;;;;;;;;;18.10;41.30;;;;;;5077544;28;19946;-68
2022/03/26 13:56:07;;;;;;;;;;;18.00;41.70;;;;;;5081549;28;19924;-69
2022/03/26 13:58:34;;;;;;;;;;;18.10;42.70;;;;;;5079195;28;19932;-69
2022/03/26 14:01:05;;;;;;;;;;;17.90;42.10;;;;;;5076873;28;19931;-68
2022/03/26 14:03:37;;;;;;;;;;;17.90;42.30;;;;;;5083304;28;19936;-68
2022/03/26 14:06:03;;;;;;;;;;;17.90;42.00;;;;;;5080879;28;19924;-72
2022/03/26 14:08:30;;;;;;;;;;;17.90;42.10;;;;;;5077643;28;19924;-70
2022/03/26 14:10:57;;;;;;;;;;;17.80;41.90;;;;;;5083023;28;20333;-68
2022/03/26 14:13:24;;;;;;;;;;;18.00;41.00;;;;;;5085171;28;19928;-70
2022/03/26 14:15:50;;;;;;;;;;;18.00;40.70;;;;;;5074967;28;20429;-70
2022/03/26 14:18:18;;;;;;;;;;;17.90;40.60;;;;;;5084676;28;20056;-68
2022/03/26 14:20:47;;;;;;;;;;;18.10;39.20;;;;;;5076070;28;19950;-68
2022/03/26 14:23:13;;;;;;;;;;;18.10;39.50;;;;;;5074940;28;19932;-68
2022/03/26 14:25:41;;;;;;;;;;;18.20;41.00;;;;;;5079656;28;19932;-68
2022/03/26 14:28:09;;;;;;;;;;;18.20;40.20;;;;;;5086469;28;19930;-68
2022/03/26 14:30:36;;;;;;;;;;;18.20;39.40;;;;;;5081152;28;19947;-68
2022/03/26 14:33:03;;;;;;;;;;;18.10;40.60;;;;;;5080275;28;19931;-70